Accueil
METAR-TAF:

METAR-TAF

Aéroports :

Biarritz, France

Aéroport de Biarritz Pays Basque

latitude: 43-28N, longitude: 001-32W, altitude: 75 m

Observation

Le bulletin a été fait il y a 25 minutes, à 22:00 UTC
Vent 2 kt de sud-ouest
Température 3°C
Humidité 93%
Pression 1022 hPa
Visibilité 10 km ou plus
pas de nuages en-dessous de 1500 mètres et pas de cumulonimbus.

METAR: LFBZ 222200Z AUTO 22002KT CAVOK 03/02 Q1022 TEMPO 3500 BR

Heure: 23:25 (22:25 UTC)

Prévision

Le bulletin a été fait il y a 49 minutes, à 21:36 UTC
Prévision valable du 22 à 21 UTC au 23 à 18 UTC
Vent 4 kt de sud/sud-est
Visibilité 10 km ou plus
pas de nuages en-dessous de 1500 mètres et pas de cumulonimbus.
Temporairement
du 22 à 21 UTC au 23 à 06 UTC
Visibilité: 3500 m
brume
Evoluant progressivement
du 23 à 11 UTC au 23 à 13 UTC
Vent 10 kt de ouest/nord-ouest

TAF: LFBZ 222136Z 2221/2318 15004KT CAVOK TEMPO 2221/2306 3500 BR BECMG 2311/2313 29010KT

Observations et prévisions météorologiques de plus de 4000 aéroports (messages METAR et TAF).

Les stations disponibles sont représentées par des disques jaunes et rouges sur la carte.

Passer la souris dessus pour voir le nom de la station.

Cliquer dessus pour voir les observations et prévisions météorologiques.

Pour changer de carte: cliquez sur les boutons verts avec une croix noire pour zoomer, sur le bouton vert avec un tiret pour effectuer un zoom arrière, ou sur les flèches vertes pour les cartes adjacentes.


METAR-TAF: